Time;durP1;ratioP1;P1;durP2;ratioP2;P2;SDS_P1;SDS_P2;PMS_P1;PMS_P2;Temp;Humidity;BMP_temperature;BMP_pressure;BME280_temperature;BME280_humidity;BME280_pressure;Samples;Min_cycle;Max_cycle;Signal;HPM_P1;HPM_P2
2023/06/19 00:02:11;;;;;;;15.38;8.82;;;;;;;;;;5075700;28;20579;-60
2023/06/19 00:04:37;;;;;;;19.55;8.60;;;;;;;;;;5076245;28;20116;-60
2023/06/19 00:07:04;;;;;;;17.40;9.05;;;;;;;;;;5074475;28;20119;-59
2023/06/19 00:09:30;;;;;;;19.48;8.68;;;;;;;;;;5090308;27;20716;-59
2023/06/19 00:11:57;;;;;;;14.82;9.23;;;;;;;;;;5075646;28;20064;-60
2023/06/19 00:14:24;;;;;;;19.90;8.20;;;;;;;;;;5079004;28;20036;-60
2023/06/19 00:16:50;;;;;;;18.95;8.52;;;;;;;;;;5079172;28;20511;-59
2023/06/19 00:19:17;;;;;;;15.68;8.60;;;;;;;;;;5093340;27;20520;-59
2023/06/19 00:21:43;;;;;;;14.65;7.97;;;;;;;;;;5078500;28;20039;-59
2023/06/19 00:24:10;;;;;;;16.58;7.22;;;;;;;;;;5078402;28;20508;-59
2023/06/19 00:26:36;;;;;;;17.38;9.75;;;;;;;;;;5079066;28;20547;-60
2023/06/19 00:29:02;;;;;;;17.45;7.88;;;;;;;;;;5079019;28;20575;-60
2023/06/19 00:31:28;;;;;;;21.23;8.75;;;;;;;;;;5079572;28;20044;-59
2023/06/19 00:33:54;;;;;;;24.48;6.80;;;;;;;;;;5079013;28;20524;-60
2023/06/19 00:36:21;;;;;;;23.38;8.07;;;;;;;;;;5076965;28;20036;-59
2023/06/19 00:38:48;;;;;;;17.80;7.28;;;;;;;;;;5077933;28;20202;-59
2023/06/19 00:41:15;;;;;;;25.00;7.45;;;;;;;;;;5079881;27;20037;-60
2023/06/19 00:43:41;;;;;;;24.13;8.32;;;;;;;;;;5078860;28;20133;-59
2023/06/19 00:46:07;;;;;;;14.35;7.15;;;;;;;;;;5079125;28;20048;-59
2023/06/19 00:48:34;;;;;;;21.30;8.43;;;;;;;;;;5079591;28;20053;-59
2023/06/19 00:51:00;;;;;;;19.20;7.40;;;;;;;;;;5078737;28;20044;-59
2023/06/19 00:53:27;;;;;;;22.45;7.30;;;;;;;;;;5079275;28;20041;-59
2023/06/19 00:55:54;;;;;;;20.30;7.38;;;;;;;;;;5078675;28;20048;-59
2023/06/19 00:58:23;;;;;;;22.20;7.72;;;;;;;;;;5069033;28;20102;-59
2023/06/19 01:00:49;;;;;;;22.60;8.75;;;;;;;;;;5074682;28;20559;-59
2023/06/19 01:03:16;;;;;;;19.75;8.00;;;;;;;;;;5075894;28;20036;-59
2023/06/19 01:05:48;;;;;;;19.05;7.03;;;;;;;;;;5078166;28;20052;-60
2023/06/19 01:08:32;;;;;;;19.88;9.65;;;;;;;;;;5075594;28;20044;-59
2023/06/19 01:10:59;;;;;;;24.00;8.63;;;;;;;;;;5076257;28;20864;-59
2023/06/19 01:13:29;;;;;;;22.75;7.75;;;;;;;;;;5077457;28;20048;-59
2023/06/19 01:15:55;;;;;;;22.70;8.35;;;;;;;;;;5078432;28;20051;-59
2023/06/19 01:18:22;;;;;;;22.67;7.15;;;;;;;;;;5093201;27;20064;-59
2023/06/19 01:20:48;;;;;;;16.17;8.05;;;;;;;;;;5076115;28;20071;-60
2023/06/19 01:23:14;;;;;;;27.17;8.77;;;;;;;;;;5075807;28;20570;-59
2023/06/19 01:25:40;;;;;;;28.20;8.57;;;;;;;;;;5076841;28;20041;-59
2023/06/19 01:28:09;;;;;;;22.70;8.35;;;;;;;;;;5077957;28;20039;-59
2023/06/19 01:30:35;;;;;;;23.92;9.52;;;;;;;;;;5078844;28;20044;-59
2023/06/19 01:33:09;;;;;;;25.73;7.82;;;;;;;;;;5076545;28;20044;-60
2023/06/19 01:35:37;;;;;;;21.23;7.45;;;;;;;;;;5076705;27;20049;-59
2023/06/19 01:38:03;;;;;;;20.05;8.20;;;;;;;;;;5077208;28;20554;-59
2023/06/19 01:40:31;;;;;;;16.95;8.02;;;;;;;;;;5077110;28;20566;-59
2023/06/19 01:42:59;;;;;;;23.92;7.53;;;;;;;;;;5091310;27;20040;-60
2023/06/19 01:45:25;;;;;;;25.75;8.70;;;;;;;;;;5077859;28;20591;-59
2023/06/19 01:47:51;;;;;;;20.63;8.15;;;;;;;;;;5077027;28;20041;-59
2023/06/19 01:50:17;;;;;;;18.10;7.80;;;;;;;;;;5077629;28;20547;-60
2023/06/19 01:52:43;;;;;;;19.00;7.78;;;;;;;;;;5075868;28;20045;-60
2023/06/19 01:55:10;;;;;;;23.02;9.75;;;;;;;;;;5075851;28;20182;-59
2023/06/19 01:57:36;;;;;;;18.70;6.88;;;;;;;;;;5075557;28;20480;-59
2023/06/19 02:00:05;;;;;;;21.35;7.38;;;;;;;;;;5076853;28;20115;-59
2023/06/19 02:02:31;;;;;;;17.23;8.32;;;;;;;;;;5076753;28;20692;-60
2023/06/19 02:04:57;;;;;;;14.98;7.82;;;;;;;;;;5076189;28;20566;-60
2023/06/19 02:07:23;;;;;;;22.05;8.13;;;;;;;;;;5075149;28;20120;-59
2023/06/19 02:09:49;;;;;;;24.10;6.90;;;;;;;;;;5076248;28;20115;-59
2023/06/19 02:12:16;;;;;;;25.13;8.13;;;;;;;;;;5073298;28;20786;-59
2023/06/19 02:14:42;;;;;;;16.73;7.22;;;;;;;;;;5076213;28;20155;-59
2023/06/19 02:17:08;;;;;;;16.30;7.82;;;;;;;;;;5076503;28;20513;-60
2023/06/19 02:19:34;;;;;;;14.38;7.75;;;;;;;;;;5076687;28;20091;-59
2023/06/19 02:22:00;;;;;;;17.88;7.53;;;;;;;;;;5074107;28;20041;-60
2023/06/19 02:24:26;;;;;;;20.13;7.35;;;;;;;;;;5075567;28;20164;-59
2023/06/19 02:26:52;;;;;;;23.10;7.45;;;;;;;;;;5076923;28;20033;-59
2023/06/19 02:29:18;;;;;;;18.27;8.15;;;;;;;;;;5075042;28;20056;-60
2023/06/19 02:31:45;;;;;;;17.67;7.68;;;;;;;;;;5076415;28;20040;-59
2023/06/19 02:34:11;;;;;;;22.95;8.30;;;;;;;;;;5075304;28;20784;-60
2023/06/19 02:36:37;;;;;;;22.80;8.00;;;;;;;;;;5075647;28;20032;-59
2023/06/19 02:39:06;;;;;;;20.23;7.70;;;;;;;;;;5075665;28;20624;-59
2023/06/19 02:41:32;;;;;;;14.38;7.30;;;;;;;;;;5076684;28;20135;-59
2023/06/19 02:43:58;;;;;;;17.08;7.22;;;;;;;;;;5067312;28;20053;-60
2023/06/19 02:46:24;;;;;;;13.60;7.47;;;;;;;;;;5074762;28;20535;-59
2023/06/19 02:48:51;;;;;;;15.90;7.88;;;;;;;;;;5073665;28;20036;-59
2023/06/19 02:51:17;;;;;;;16.33;7.72;;;;;;;;;;5074858;28;20109;-59
2023/06/19 02:53:43;;;;;;;16.70;7.65;;;;;;;;;;5070105;28;20551;-59
2023/06/19 02:56:10;;;;;;;22.10;8.45;;;;;;;;;;5072544;28;20041;-59
2023/06/19 02:58:37;;;;;;;19.88;7.28;;;;;;;;;;5072796;28;20048;-60
2023/06/19 03:01:03;;;;;;;19.33;8.52;;;;;;;;;;5074079;28;21232;-60
2023/06/19 03:03:30;;;;;;;16.63;7.95;;;;;;;;;;5075310;28;20044;-59
2023/06/19 03:05:56;;;;;;;22.75;9.55;;;;;;;;;;5086426;27;20550;-60
2023/06/19 03:08:23;;;;;;;26.13;10.40;;;;;;;;;;5072655;28;20040;-59
2023/06/19 03:10:49;;;;;;;24.85;11.13;;;;;;;;;;5073813;28;20078;-59
2023/06/19 03:13:15;;;;;;;22.95;9.05;;;;;;;;;;5067198;28;20044;-59
2023/06/19 03:15:41;;;;;;;19.88;9.18;;;;;;;;;;5073828;28;20071;-59
2023/06/19 03:18:09;;;;;;;18.27;8.30;;;;;;;;;;5075901;28;20041;-59
2023/06/19 03:20:35;;;;;;;18.30;8.73;;;;;;;;;;5076021;28;20563;-59
2023/06/19 03:23:01;;;;;;;25.95;10.02;;;;;;;;;;5073895;28;20088;-59
2023/06/19 03:25:33;;;;;;;14.80;8.30;;;;;;;;;;5076355;28;20041;-59
2023/06/19 03:27:59;;;;;;;17.55;8.15;;;;;;;;;;5074990;28;20044;-59
2023/06/19 03:30:25;;;;;;;22.13;7.50;;;;;;;;;;5075150;28;20116;-59
2023/06/19 03:32:51;;;;;;;17.83;8.60;;;;;;;;;;5090887;27;20054;-59
2023/06/19 03:35:17;;;;;;;19.95;9.00;;;;;;;;;;5075459;28;20074;-59
2023/06/19 03:37:43;;;;;;;22.30;7.72;;;;;;;;;;5075172;28;20130;-59
2023/06/19 03:40:13;;;;;;;19.00;7.43;;;;;;;;;;5075804;28;20112;-59
2023/06/19 03:42:39;;;;;;;16.48;8.63;;;;;;;;;;5075683;28;20048;-59
2023/06/19 03:45:05;;;;;;;15.68;8.63;;;;;;;;;;5074472;28;20784;-59
2023/06/19 03:47:31;;;;;;;15.40;9.15;;;;;;;;;;5075487;28;20036;-59
2023/06/19 03:49:58;;;;;;;18.67;8.93;;;;;;;;;;5075452;28;20071;-60
2023/06/19 03:52:24;;;;;;;20.95;8.00;;;;;;;;;;5076173;28;20051;-59
2023/06/19 03:54:50;;;;;;;13.65;8.27;;;;;;;;;;5089591;27;20086;-59
2023/06/19 03:57:16;;;;;;;16.85;8.13;;;;;;;;;;5076324;28;20040;-60
2023/06/19 03:59:42;;;;;;;24.58;8.25;;;;;;;;;;5090617;27;20053;-59
2023/06/19 04:02:08;;;;;;;16.65;8.80;;;;;;;;;;5075477;28;20124;-59
2023/06/19 04:04:34;;;;;;;17.23;8.18;;;;;;;;;;5075113;28;20040;-59
2023/06/19 04:07:00;;;;;;;22.58;7.97;;;;;;;;;;5075477;28;20061;-59
2023/06/19 04:09:26;;;;;;;14.88;7.90;;;;;;;;;;5073831;28;20040;-59
2023/06/19 04:11:52;;;;;;;21.23;8.80;;;;;;;;;;5090855;27;20037;-59
2023/06/19 04:14:18;;;;;;;18.15;8.32;;;;;;;;;;5074453;28;20930;-60
2023/06/19 04:16:44;;;;;;;16.02;8.85;;;;;;;;;;5072910;28;20033;-59
2023/06/19 04:19:10;;;;;;;15.90;6.75;;;;;;;;;;5074579;28;20040;-59
2023/06/19 04:21:37;;;;;;;17.90;9.02;;;;;;;;;;5072959;28;20045;-59
2023/06/19 04:24:04;;;;;;;15.70;8.07;;;;;;;;;;5073498;28;20059;-59
2023/06/19 04:26:30;;;;;;;20.88;8.80;;;;;;;;;;5075555;28;20033;-60
2023/06/19 04:28:57;;;;;;;16.52;7.50;;;;;;;;;;5074063;28;20052;-59
2023/06/19 04:31:23;;;;;;;22.88;8.98;;;;;;;;;;5073260;28;20048;-60
2023/06/19 04:33:49;;;;;;;19.23;8.13;;;;;;;;;;5075042;28;20118;-59
2023/06/19 04:36:15;;;;;;;15.48;8.35;;;;;;;;;;5074685;28;20051;-59
2023/06/19 04:38:41;;;;;;;22.90;8.30;;;;;;;;;;5072002;28;20040;-59
2023/06/19 04:41:07;;;;;;;21.13;9.35;;;;;;;;;;5072281;28;20041;-59
2023/06/19 04:43:34;;;;;;;17.52;9.18;;;;;;;;;;5072815;28;20040;-59
2023/06/19 04:46:00;;;;;;;21.08;9.02;;;;;;;;;;5070975;28;21028;-59
2023/06/19 04:48:26;;;;;;;19.92;8.60;;;;;;;;;;5075015;28;20048;-59
2023/06/19 04:50:52;;;;;;;13.07;7.60;;;;;;;;;;5089259;27;20051;-59
2023/06/19 04:53:18;;;;;;;24.05;10.52;;;;;;;;;;5073656;28;20045;-59
2023/06/19 04:55:45;;;;;;;16.15;7.93;;;;;;;;;;5072996;28;20040;-59
2023/06/19 04:58:11;;;;;;;16.88;8.68;;;;;;;;;;5072748;28;20044;-59
2023/06/19 05:00:37;;;;;;;14.02;7.75;;;;;;;;;;5071081;28;20152;-59
2023/06/19 05:03:03;;;;;;;20.00;9.07;;;;;;;;;;5075841;28;20040;-59
2023/06/19 05:05:29;;;;;;;24.92;10.88;;;;;;;;;;5075736;28;20082;-60
2023/06/19 05:07:55;;;;;;;29.80;10.65;;;;;;;;;;5076870;28;20032;-59
2023/06/19 05:10:21;;;;;;;28.83;9.95;;;;;;;;;;5068371;28;20047;-59
2023/06/19 05:12:47;;;;;;;22.15;10.68;;;;;;;;;;5071438;28;20036;-60
2023/06/19 05:15:13;;;;;;;15.10;8.32;;;;;;;;;;5090939;27;20041;-60
2023/06/19 05:17:39;;;;;;;16.05;7.60;;;;;;;;;;5075299;28;20037;-60
2023/06/19 05:20:09;;;;;;;12.95;7.75;;;;;;;;;;5078395;28;21141;-60
2023/06/19 05:22:36;;;;;;;16.27;8.45;;;;;;;;;;5078132;28;20048;-59
2023/06/19 05:25:02;;;;;;;16.92;8.98;;;;;;;;;;5076836;28;20048;-60
2023/06/19 05:27:28;;;;;;;23.52;8.80;;;;;;;;;;5078534;28;20048;-60
2023/06/19 05:29:54;;;;;;;15.68;8.50;;;;;;;;;;5076443;28;20559;-59
2023/06/19 05:32:20;;;;;;;29.10;9.82;;;;;;;;;;5076257;28;20502;-59
2023/06/19 05:34:46;;;;;;;19.55;8.18;;;;;;;;;;5074660;28;20262;-59
2023/06/19 05:37:13;;;;;;;19.90;9.23;;;;;;;;;;5068717;28;20923;-60
2023/06/19 05:39:39;;;;;;;16.23;10.02;;;;;;;;;;5069845;27;20833;-60
2023/06/19 05:42:05;;;;;;;18.60;10.65;;;;;;;;;;5071659;28;20051;-60
2023/06/19 05:44:31;;;;;;;19.85;9.02;;;;;;;;;;5072731;28;20044;-60
2023/06/19 05:46:57;;;;;;;20.13;9.07;;;;;;;;;;5076690;28;20091;-60
2023/06/19 05:49:23;;;;;;;17.45;9.88;;;;;;;;;;5074395;28;20040;-60
2023/06/19 05:51:49;;;;;;;19.98;9.93;;;;;;;;;;5075856;28;20045;-60
2023/06/19 05:54:17;;;;;;;22.88;11.80;;;;;;;;;;5072816;28;20058;-60
2023/06/19 05:56:43;;;;;;;20.67;9.82;;;;;;;;;;5074902;28;20053;-60
2023/06/19 05:59:09;;;;;;;17.20;8.88;;;;;;;;;;5071359;28;20120;-60
2023/06/19 06:01:35;;;;;;;32.00;10.07;;;;;;;;;;5072481;28;20632;-60
2023/06/19 06:04:01;;;;;;;16.17;9.55;;;;;;;;;;5076071;28;20045;-60
2023/06/19 06:06:28;;;;;;;27.15;14.13;;;;;;;;;;5076289;27;20036;-60
2023/06/19 06:08:54;;;;;;;39.15;18.27;;;;;;;;;;5071846;28;20044;-60
2023/06/19 06:11:20;;;;;;;43.72;19.50;;;;;;;;;;5073282;28;20036;-60
2023/06/19 06:13:46;;;;;;;42.92;21.20;;;;;;;;;;5074242;28;20500;-60
2023/06/19 06:16:14;;;;;;;38.22;20.88;;;;;;;;;;5076063;28;20044;-60
2023/06/19 06:18:40;;;;;;;48.03;23.23;;;;;;;;;;5075795;28;20045;-60
2023/06/19 06:21:06;;;;;;;36.70;19.38;;;;;;;;;;5075563;28;20058;-60
2023/06/19 06:23:32;;;;;;;27.90;14.93;;;;;;;;;;5074271;28;20410;-60
2023/06/19 06:26:02;;;;;;;30.65;15.43;;;;;;;;;;5073659;28;20041;-60
2023/06/19 06:28:28;;;;;;;24.88;13.07;;;;;;;;;;5074203;28;20678;-60
2023/06/19 06:30:54;;;;;;;25.52;13.07;;;;;;;;;;5076206;28;20131;-60
2023/06/19 06:33:22;;;;;;;21.80;11.65;;;;;;;;;;5075001;28;20061;-60
2023/06/19 06:35:48;;;;;;;25.10;11.75;;;;;;;;;;5075245;28;20049;-60
2023/06/19 06:38:14;;;;;;;24.65;11.65;;;;;;;;;;5072652;28;20048;-60
2023/06/19 06:40:41;;;;;;;19.55;12.27;;;;;;;;;;5073957;28;20044;-60
2023/06/19 06:43:07;;;;;;;20.88;12.90;;;;;;;;;;5073592;28;20098;-60
2023/06/19 06:45:33;;;;;;;21.98;12.85;;;;;;;;;;5074622;28;20044;-60
2023/06/19 06:47:59;;;;;;;19.33;12.25;;;;;;;;;;5071823;28;20050;-60
2023/06/19 06:50:25;;;;;;;22.98;15.05;;;;;;;;;;5073302;28;20052;-59
2023/06/19 06:52:51;;;;;;;22.70;13.90;;;;;;;;;;5075679;28;20599;-59
2023/06/19 06:55:17;;;;;;;23.08;13.82;;;;;;;;;;5074679;28;20559;-60
2023/06/19 06:57:43;;;;;;;25.05;14.50;;;;;;;;;;5075684;28;20604;-60
2023/06/19 07:00:11;;;;;;;27.30;14.43;;;;;;;;;;5076362;28;20135;-59
2023/06/19 07:02:38;;;;;;;25.00;15.27;;;;;;;;;;5077641;28;20538;-60
2023/06/19 07:05:04;;;;;;;25.85;15.80;;;;;;;;;;5077071;28;20041;-59
2023/06/19 07:07:30;;;;;;;30.77;17.05;;;;;;;;;;5077101;28;20139;-60
2023/06/19 07:09:57;;;;;;;27.73;16.17;;;;;;;;;;5075995;28;20127;-60
2023/06/19 07:12:23;;;;;;;22.38;13.60;;;;;;;;;;5077197;28;20117;-59
2023/06/19 07:14:49;;;;;;;20.02;13.32;;;;;;;;;;5077053;28;20480;-60
2023/06/19 07:17:15;;;;;;;21.80;13.85;;;;;;;;;;5076493;27;20048;-60
2023/06/19 07:19:41;;;;;;;18.35;11.80;;;;;;;;;;5077185;28;20174;-59
2023/06/19 07:22:07;;;;;;;16.67;12.05;;;;;;;;;;5074672;28;20047;-60
2023/06/19 07:24:33;;;;;;;17.30;11.00;;;;;;;;;;5090743;27;20052;-59
2023/06/19 07:26:59;;;;;;;16.42;11.98;;;;;;;;;;5075903;28;20048;-60
2023/06/19 07:29:26;;;;;;;14.00;11.05;;;;;;;;;;5076040;28;20113;-60
2023/06/19 07:31:52;;;;;;;18.42;11.30;;;;;;;;;;5076481;28;20067;-60
2023/06/19 07:34:19;;;;;;;18.75;12.13;;;;;;;;;;5077089;28;20391;-59
2023/06/19 07:36:45;;;;;;;16.63;11.07;;;;;;;;;;5076615;28;20631;-59
2023/06/19 07:39:11;;;;;;;16.15;10.20;;;;;;;;;;5076029;28;20528;-59
2023/06/19 07:41:37;;;;;;;17.85;11.38;;;;;;;;;;5077093;28;20090;-59
2023/06/19 07:44:03;;;;;;;29.27;12.50;;;;;;;;;;5075281;28;20079;-60
2023/06/19 07:46:29;;;;;;;17.23;12.43;;;;;;;;;;5075995;28;20048;-60
2023/06/19 07:48:55;;;;;;;15.57;11.75;;;;;;;;;;5076724;28;20045;-59
2023/06/19 07:51:21;;;;;;;17.15;11.23;;;;;;;;;;5075591;28;20124;-60
2023/06/19 07:53:47;;;;;;;17.58;12.02;;;;;;;;;;5075630;28;20516;-60
2023/06/19 07:56:13;;;;;;;19.83;11.48;;;;;;;;;;5073879;28;20045;-60
2023/06/19 07:58:40;;;;;;;16.92;11.60;;;;;;;;;;5072306;28;20127;-60
2023/06/19 08:01:06;;;;;;;19.80;12.38;;;;;;;;;;5075272;28;20052;-59
2023/06/19 08:03:32;;;;;;;18.88;12.07;;;;;;;;;;5074700;28;20036;-59
2023/06/19 08:05:58;;;;;;;21.23;13.13;;;;;;;;;;5073877;27;20041;-60
2023/06/19 08:08:24;;;;;;;18.45;11.82;;;;;;;;;;5076895;28;20044;-60
2023/06/19 08:10:50;;;;;;;17.65;10.80;;;;;;;;;;5075307;28;20163;-60
2023/06/19 08:13:16;;;;;;;19.35;12.75;;;;;;;;;;5076431;28;20086;-59
2023/06/19 08:15:44;;;;;;;19.45;11.27;;;;;;;;;;5091878;27;20629;-60
2023/06/19 08:18:13;;;;;;;16.60;11.60;;;;;;;;;;5076900;28;20048;-60
2023/06/19 08:20:39;;;;;;;17.67;10.98;;;;;;;;;;5074246;28;20029;-60
2023/06/19 08:23:05;;;;;;;18.95;12.80;;;;;;;;;;5076214;28;20052;-60
2023/06/19 08:25:31;;;;;;;15.25;10.43;;;;;;;;;;5074515;28;20119;-60
2023/06/19 08:27:57;;;;;;;19.42;10.38;;;;;;;;;;5075894;28;20069;-60
2023/06/19 08:30:23;;;;;;;13.55;9.90;;;;;;;;;;5076618;28;20041;-60
2023/06/19 08:32:49;;;;;;;17.30;10.15;;;;;;;;;;5077170;28;20044;-60
2023/06/19 08:35:15;;;;;;;17.80;11.50;;;;;;;;;;5079799;27;20040;-60
2023/06/19 08:37:42;;;;;;;16.77;10.07;;;;;;;;;;5080017;28;20044;-61
2023/06/19 08:40:09;;;;;;;13.75;9.25;;;;;;;;;;5078950;28;20048;-60
2023/06/19 08:42:35;;;;;;;15.15;10.30;;;;;;;;;;5079440;28;20552;-60
2023/06/19 08:45:01;;;;;;;19.42;9.77;;;;;;;;;;5079096;28;20114;-60
2023/06/19 08:47:34;;;;;;;13.13;8.93;;;;;;;;;;5079402;28;20033;-60
2023/06/19 08:50:00;;;;;;;17.17;8.40;;;;;;;;;;5077460;28;20116;-60
2023/06/19 08:52:26;;;;;;;13.27;9.27;;;;;;;;;;5094212;27;20535;-60
2023/06/19 08:54:52;;;;;;;13.57;7.63;;;;;;;;;;5078422;28;20040;-60
2023/06/19 08:57:19;;;;;;;16.42;8.50;;;;;;;;;;5079591;28;20048;-60
2023/06/19 08:59:49;;;;;;;12.57;8.90;;;;;;;;;;5078856;28;20047;-60
2023/06/19 09:02:15;;;;;;;11.65;7.85;;;;;;;;;;5077737;28;20090;-60
2023/06/19 09:04:41;;;;;;;13.57;7.03;;;;;;;;;;5078931;28;21197;-60
2023/06/19 09:07:08;;;;;;;11.98;6.85;;;;;;;;;;5078333;28;21070;-60
2023/06/19 09:09:34;;;;;;;9.73;7.88;;;;;;;;;;5078256;28;20127;-60
2023/06/19 09:12:05;;;;;;;10.32;7.65;;;;;;;;;;5078432;28;20048;-60
2023/06/19 09:14:35;;;;;;;12.88;7.30;;;;;;;;;;5078669;28;20207;-60
2023/06/19 09:17:05;;;;;;;8.50;6.60;;;;;;;;;;5094123;27;20039;-60
2023/06/19 09:19:31;;;;;;;10.30;6.70;;;;;;;;;;5079211;28;20074;-60
2023/06/19 09:22:07;;;;;;;10.02;6.13;;;;;;;;;;5078440;28;20136;-60
2023/06/19 09:24:37;;;;;;;10.43;6.43;;;;;;;;;;5078350;28;20061;-60
2023/06/19 09:27:21;;;;;;;9.68;5.18;;;;;;;;;;5077060;28;20045;-60
2023/06/19 09:29:49;;;;;;;7.25;5.25;;;;;;;;;;5077482;28;20528;-59
2023/06/19 09:32:22;;;;;;;7.57;4.75;;;;;;;;;;5078374;28;20570;-60
2023/06/19 09:34:50;;;;;;;6.90;5.50;;;;;;;;;;5078292;28;20045;-60
2023/06/19 09:37:19;;;;;;;9.30;5.30;;;;;;;;;;5079243;28;20485;-60
2023/06/19 09:39:46;;;;;;;8.55;5.15;;;;;;;;;;5078545;28;20753;-60
2023/06/19 09:42:13;;;;;;;6.22;4.68;;;;;;;;;;5077528;28;20047;-60
2023/06/19 09:44:44;;;;;;;7.30;4.65;;;;;;;;;;5076065;28;20238;-59
2023/06/19 09:47:23;;;;;;;10.50;5.15;;;;;;;;;;5078110;28;20124;-60
2023/06/19 09:49:50;;;;;;;7.40;4.18;;;;;;;;;;5077722;28;20037;-60
2023/06/19 09:52:19;;;;;;;6.40;4.60;;;;;;;;;;5092952;27;20530;-60
2023/06/19 09:54:46;;;;;;;10.18;4.47;;;;;;;;;;5077508;28;20060;-60
2023/06/19 09:57:12;;;;;;;6.63;4.88;;;;;;;;;;5078485;28;20633;-59
2023/06/19 09:59:41;;;;;;;7.15;5.15;;;;;;;;;;5078246;28;20055;-60
2023/06/19 10:02:08;;;;;;;7.88;4.68;;;;;;;;;;5077586;28;20036;-60
2023/06/19 10:05:03;;;;;;;8.27;4.63;;;;;;;;;;5077652;28;20122;-60
2023/06/19 10:07:33;;;;;;;11.88;4.53;;;;;;;;;;5071729;28;20048;-60
2023/06/19 10:10:00;;;;;;;6.53;4.40;;;;;;;;;;5077952;28;20051;-60
2023/06/19 10:12:35;;;;;;;7.35;4.18;;;;;;;;;;5076594;27;20164;-60
2023/06/19 10:15:10;;;;;;;10.93;6.05;;;;;;;;;;5077658;28;20135;-60
2023/06/19 10:17:37;;;;;;;4.90;4.00;;;;;;;;;;5093541;27;20051;-60
2023/06/19 10:20:03;;;;;;;6.30;4.07;;;;;;;;;;5077543;28;20172;-60
2023/06/19 10:22:32;;;;;;;6.07;3.72;;;;;;;;;;5078052;28;20041;-60
2023/06/19 10:24:58;;;;;;;4.32;3.13;;;;;;;;;;5076888;28;20140;-60
2023/06/19 10:27:25;;;;;;;6.50;3.72;;;;;;;;;;5076007;28;20040;-60
2023/06/19 10:29:54;;;;;;;8.02;3.72;;;;;;;;;;5077326;28;20048;-60
2023/06/19 10:32:20;;;;;;;12.10;3.88;;;;;;;;;;5077622;28;20041;-60
2023/06/19 10:34:47;;;;;;;5.57;4.05;;;;;;;;;;5077569;28;20052;-60
2023/06/19 10:37:13;;;;;;;9.52;4.30;;;;;;;;;;5076884;28;20040;-60
2023/06/19 10:39:39;;;;;;;5.88;5.05;;;;;;;;;;5078513;28;20464;-60
2023/06/19 10:42:07;;;;;;;6.03;3.88;;;;;;;;;;5076373;28;20048;-60
2023/06/19 10:44:33;;;;;;;5.22;4.22;;;;;;;;;;5075064;28;20167;-60
2023/06/19 10:47:00;;;;;;;7.70;4.45;;;;;;;;;;5077624;28;20045;-60
2023/06/19 10:49:26;;;;;;;5.88;4.18;;;;;;;;;;5077812;27;20063;-60
2023/06/19 10:51:57;;;;;;;6.95;4.00;;;;;;;;;;5077747;28;20036;-60
2023/06/19 10:54:23;;;;;;;6.72;4.68;;;;;;;;;;5077314;28;20855;-60
2023/06/19 10:56:50;;;;;;;6.05;4.00;;;;;;;;;;5075678;28;20831;-60
2023/06/19 10:59:17;;;;;;;6.10;3.80;;;;;;;;;;5076418;28;20045;-60
2023/06/19 11:01:45;;;;;;;5.78;3.53;;;;;;;;;;5075960;28;20527;-60
2023/06/19 11:04:12;;;;;;;8.20;4.88;;;;;;;;;;5076440;28;20043;-60
2023/06/19 11:06:39;;;;;;;5.47;4.20;;;;;;;;;;5091948;27;20036;-60
2023/06/19 11:09:06;;;;;;;5.25;3.45;;;;;;;;;;5076075;28;20040;-60
2023/06/19 11:11:52;;;;;;;6.35;4.15;;;;;;;;;;5076489;28;20128;-60
2023/06/19 11:14:18;;;;;;;5.55;4.63;;;;;;;;;;5077192;28;20040;-60
2023/06/19 11:16:46;;;;;;;8.50;5.28;;;;;;;;;;5076382;28;21573;-60
2023/06/19 11:19:19;;;;;;;6.28;3.75;;;;;;;;;;5091854;27;20599;-60
2023/06/19 11:21:46;;;;;;;6.75;3.30;;;;;;;;;;5077053;28;20040;-60
2023/06/19 11:24:13;;;;;;;8.25;4.00;;;;;;;;;;5074953;28;20629;-60
2023/06/19 11:26:52;;;;;;;5.78;3.85;;;;;;;;;;5075619;28;20117;-60
2023/06/19 11:29:29;;;;;;;6.85;4.00;;;;;;;;;;5076960;28;20044;-60
2023/06/19 11:32:27;;;;;;;4.75;3.63;;;;;;;;;;5077015;28;20040;-61
2023/06/19 11:34:54;;;;;;;6.40;3.55;;;;;;;;;;5074344;28;20152;-60
2023/06/19 11:37:21;;;;;;;5.53;3.97;;;;;;;;;;5076946;28;20037;-60
2023/06/19 11:39:47;;;;;;;9.82;4.47;;;;;;;;;;5092413;27;20559;-60
2023/06/19 11:42:14;;;;;;;5.32;3.75;;;;;;;;;;5076304;28;20040;-60
2023/06/19 11:44:59;;;;;;;8.30;4.30;;;;;;;;;;5076821;28;20190;-60
2023/06/19 11:47:25;;;;;;;5.57;3.60;;;;;;;;;;5076118;28;20094;-60
2023/06/19 11:49:51;;;;;;;7.40;4.40;;;;;;;;;;5076467;28;20052;-60
2023/06/19 11:52:18;;;;;;;7.35;5.15;;;;;;;;;;5092440;27;20124;-61
2023/06/19 11:54:44;;;;;;;8.73;4.80;;;;;;;;;;5075500;28;20587;-60
2023/06/19 11:57:13;;;;;;;6.95;3.97;;;;;;;;;;5075297;28;20794;-60
2023/06/19 11:59:40;;;;;;;6.57;4.40;;;;;;;;;;5076083;28;20070;-61
2023/06/19 12:02:06;;;;;;;5.97;4.20;;;;;;;;;;5076120;28;20070;-61
2023/06/19 12:04:33;;;;;;;7.57;4.38;;;;;;;;;;5075742;28;20048;-61
2023/06/19 12:06:59;;;;;;;6.72;4.80;;;;;;;;;;5075988;28;20053;-61
2023/06/19 12:09:25;;;;;;;4.55;3.70;;;;;;;;;;5080196;28;20851;-61
2023/06/19 12:11:52;;;;;;;7.30;4.60;;;;;;;;;;5080221;28;20040;-60
2023/06/19 12:14:19;;;;;;;7.65;4.82;;;;;;;;;;5076925;28;20064;-61
2023/06/19 12:16:48;;;;;;;7.97;4.40;;;;;;;;;;5094769;27;20559;-61
2023/06/19 12:19:14;;;;;;;5.22;4.28;;;;;;;;;;5079152;28;20045;-60
2023/06/19 12:21:40;;;;;;;5.55;4.15;;;;;;;;;;5079585;28;20138;-61
2023/06/19 12:24:06;;;;;;;8.50;4.47;;;;;;;;;;5079601;28;20108;-61
2023/06/19 12:26:36;;;;;;;6.05;4.35;;;;;;;;;;5080022;28;20037;-60
2023/06/19 12:29:03;;;;;;;5.20;3.47;;;;;;;;;;5077680;28;20049;-61
2023/06/19 12:31:29;;;;;;;5.75;3.83;;;;;;;;;;5080250;28;20048;-61
2023/06/19 12:33:55;;;;;;;13.45;5.15;;;;;;;;;;5078971;28;20067;-60
2023/06/19 12:36:21;;;;;;;6.78;4.50;;;;;;;;;;5079247;28;20040;-61
2023/06/19 12:38:48;;;;;;;6.07;4.57;;;;;;;;;;5078559;28;20045;-61
2023/06/19 12:41:14;;;;;;;7.03;4.00;;;;;;;;;;5079747;28;20036;-61
2023/06/19 12:43:41;;;;;;;6.35;4.45;;;;;;;;;;5078110;28;20051;-61
2023/06/19 12:46:07;;;;;;;8.25;4.70;;;;;;;;;;5078924;28;20044;-61
2023/06/19 12:48:33;;;;;;;4.68;3.67;;;;;;;;;;5079235;28;20068;-60
2023/06/19 12:51:00;;;;;;;6.28;4.10;;;;;;;;;;5078743;28;20086;-61
2023/06/19 12:53:29;;;;;;;6.18;3.90;;;;;;;;;;5079202;28;20111;-61
2023/06/19 12:55:59;;;;;;;6.35;4.63;;;;;;;;;;5079580;28;20546;-61
2023/06/19 12:58:25;;;;;;;7.10;4.25;;;;;;;;;;5078530;28;20043;-60
2023/06/19 13:00:51;;;;;;;7.25;4.65;;;;;;;;;;5094466;27;20055;-61
2023/06/19 13:03:18;;;;;;;8.27;4.25;;;;;;;;;;5078369;28;20577;-61
2023/06/19 13:05:44;;;;;;;7.05;4.97;;;;;;;;;;5079310;28;20040;-61
2023/06/19 13:08:10;;;;;;;5.57;4.15;;;;;;;;;;5080497;28;20089;-61
2023/06/19 13:10:38;;;;;;;9.32;5.50;;;;;;;;;;5078969;28;20055;-61
2023/06/19 13:13:05;;;;;;;8.15;5.00;;;;;;;;;;5093642;27;20156;-61
2023/06/19 13:15:33;;;;;;;5.97;4.43;;;;;;;;;;5079272;27;20040;-61
2023/06/19 13:17:59;;;;;;;10.10;4.90;;;;;;;;;;5079042;28;20071;-61
2023/06/19 13:20:25;;;;;;;8.15;4.63;;;;;;;;;;5079150;28;20591;-60
2023/06/19 13:22:52;;;;;;;7.40;4.95;;;;;;;;;;5078651;28;20048;-61
2023/06/19 13:25:19;;;;;;;9.20;5.55;;;;;;;;;;5079176;28;20079;-61
2023/06/19 13:27:45;;;;;;;9.48;4.80;;;;;;;;;;5079122;28;20064;-60
2023/06/19 13:30:11;;;;;;;8.45;4.72;;;;;;;;;;5091671;27;20048;-60
2023/06/19 13:32:37;;;;;;;8.00;4.80;;;;;;;;;;5079544;28;20095;-61
2023/06/19 13:35:04;;;;;;;6.18;4.50;;;;;;;;;;5077992;28;20592;-60
2023/06/19 13:37:30;;;;;;;8.52;4.53;;;;;;;;;;5078311;28;20033;-61
2023/06/19 13:39:56;;;;;;;7.72;4.28;;;;;;;;;;5079400;28;20091;-61
2023/06/19 13:42:22;;;;;;;6.78;5.10;;;;;;;;;;5079483;28;20036;-61
2023/06/19 13:44:48;;;;;;;8.45;4.60;;;;;;;;;;5077499;28;20040;-61
2023/06/19 13:47:14;;;;;;;7.15;4.38;;;;;;;;;;5079101;28;20122;-60
2023/06/19 13:49:40;;;;;;;8.73;6.18;;;;;;;;;;5078559;28;20063;-61
2023/06/19 13:52:07;;;;;;;6.95;4.70;;;;;;;;;;5078672;28;20083;-60
2023/06/19 13:54:33;;;;;;;5.60;4.07;;;;;;;;;;5078775;28;20483;-61
2023/06/19 13:56:59;;;;;;;6.05;4.85;;;;;;;;;;5078666;28;20071;-60
2023/06/19 13:59:25;;;;;;;8.85;4.82;;;;;;;;;;5077815;28;20053;-61
2023/06/19 14:01:51;;;;;;;6.63;4.43;;;;;;;;;;5078964;28;20126;-60
2023/06/19 14:04:17;;;;;;;9.25;5.97;;;;;;;;;;5076932;28;20045;-61
2023/06/19 14:06:43;;;;;;;7.78;4.80;;;;;;;;;;5076421;28;20628;-60
2023/06/19 14:09:10;;;;;;;9.98;4.65;;;;;;;;;;5078274;28;20041;-61
2023/06/19 14:11:36;;;;;;;6.55;4.28;;;;;;;;;;5077791;28;20429;-60
2023/06/19 14:14:02;;;;;;;8.98;5.20;;;;;;;;;;5077160;28;20555;-60
2023/06/19 14:16:28;;;;;;;8.32;4.15;;;;;;;;;;5078227;28;20339;-61
2023/06/19 14:18:54;;;;;;;6.47;4.03;;;;;;;;;;5076463;28;20123;-61
2023/06/19 14:21:21;;;;;;;6.25;4.45;;;;;;;;;;5092796;27;20040;-60
2023/06/19 14:23:47;;;;;;;5.72;4.35;;;;;;;;;;5075624;28;20145;-61
2023/06/19 14:26:13;;;;;;;7.05;3.95;;;;;;;;;;5092813;27;20041;-61
2023/06/19 14:28:40;;;;;;;6.53;4.22;;;;;;;;;;5078805;28;20551;-61
2023/06/19 14:31:06;;;;;;;5.55;3.50;;;;;;;;;;5075928;28;20087;-60